CYZG

Salluit Airport

Salluit, Quebec, Canada
METAR CYZG 182200Z 26004KT 10SM -SN OVC043 M24/M27 A2969 RMK SC8 SNW CVR/TRACE LOOSE/LAST STFD OBS/NEXT OBS 191300UTC SLP089
Observed Flight Rules
Jan-18 @ 22:00 UTC (6 hours ago) Visual Flight Rules
Wind Visibility Clouds Conditions
260° at 4 knots 10 miles
  • Overcast at 4,300' AGL
  • Light Snow
Temperatures Readings
Current -24°C / -11°F
Dewpoint -27°C / -17°F
Humidity 76%
Altimeter 29.69" Hg
Pressure 1008.9 hPa
Elevation 226
METAR CYZG 182200Z 26004KT 10SM -SN OVC043 M24/M27 A2969 RMK SC8 SNW CVR/TRACE LOOSE/LAST STFD OBS/NEXT OBS 191300UTC SLP089
Observed Flight Rules
Jan-18 @ 22:00 UTC
(6 hours ago)
VFR
Wind Visibility
260° at 4 knots 10 miles
Clouds
  • Overcast at 4,300' AGL
Conditions
  • Light Snow
Temperature Dewpoint
-24°C / -11°F -27°C / -17°F
Humidity Altimeter Pressure
76% 29.69" Hg 1008.9 hPa